Time;durP1;ratioP1;P1;durP2;ratioP2;P2;SDS_P1;SDS_P2;PMS_P1;PMS_P2;Temp;Humidity;BMP_temperature;BMP_pressure;BME280_temperature;BME280_humidity;BME280_pressure;Samples;Min_cycle;Max_cycle;Signal;HPM_P1;HPM_P2
2021/06/30 00:01:24;;;;;;;2.25;0.90;;;17.90;99.90;;;;;;5048843;28;20578;-77
2021/06/30 00:03:51;;;;;;;2.80;1.10;;;17.90;99.90;;;;;;5061238;28;20079;-78
2021/06/30 00:06:19;;;;;;;2.17;1.10;;;17.90;99.90;;;;;;5052163;28;20045;-77
2021/06/30 00:08:48;;;;;;;2.50;1.15;;;17.90;99.90;;;;;;5051712;28;20053;-77
2021/06/30 00:11:16;;;;;;;3.60;1.30;;;17.90;99.90;;;;;;5032858;28;20176;-79
2021/06/30 00:13:46;;;;;;;2.35;1.15;;;17.90;99.90;;;;;;5050782;28;20136;-78
2021/06/30 00:16:13;;;;;;;2.60;1.20;;;17.90;99.90;;;;;;5050901;28;20048;-77
2021/06/30 00:18:40;;;;;;;2.15;0.90;;;17.90;99.90;;;;;;5051493;28;20159;-78
2021/06/30 00:21:07;;;;;;;2.83;1.05;;;17.90;99.90;;;;;;5051022;28;20120;-78
2021/06/30 00:23:35;;;;;;;3.40;1.10;;;17.80;99.90;;;;;;5051212;28;20053;-77
2021/06/30 00:26:03;;;;;;;2.90;1.17;;;17.80;99.90;;;;;;5050730;28;20145;-77
2021/06/30 00:28:31;;;;;;;3.65;1.10;;;17.80;99.90;;;;;;5045521;28;20079;-77
2021/06/30 00:30:58;;;;;;;2.83;1.20;;;17.80;99.90;;;;;;5053362;28;20124;-78
2021/06/30 00:33:25;;;;;;;2.33;1.10;;;17.70;99.90;;;;;;5052528;28;20766;-78
2021/06/30 00:35:52;;;;;;;3.78;1.20;;;17.70;99.90;;;;;;5053676;28;20129;-78
2021/06/30 00:38:19;;;;;;;4.05;1.30;;;17.70;99.90;;;;;;5052433;28;20163;-78
2021/06/30 00:40:47;;;;;;;3.45;1.13;;;17.60;99.90;;;;;;5053582;28;20124;-78
2021/06/30 00:43:16;;;;;;;2.67;1.02;;;17.60;99.90;;;;;;5052254;28;20087;-77
2021/06/30 00:45:43;;;;;;;2.70;1.02;;;17.60;99.90;;;;;;5053384;28;20076;-78
2021/06/30 00:48:11;;;;;;;3.55;1.05;;;17.60;99.90;;;;;;5052082;28;20469;-78
2021/06/30 00:50:38;;;;;;;2.50;1.10;;;17.60;99.90;;;;;;5052667;28;20053;-78
2021/06/30 00:53:05;;;;;;;5.00;1.20;;;17.60;99.90;;;;;;5052476;28;20132;-78
2021/06/30 00:55:32;;;;;;;4.55;1.10;;;17.60;99.90;;;;;;5045339;28;20131;-77
2021/06/30 00:57:59;;;;;;;2.85;0.95;;;17.60;99.90;;;;;;5039228;28;20130;-78
2021/06/30 01:00:28;;;;;;;1.88;0.90;;;17.60;99.90;;;;;;5052422;28;20053;-78
2021/06/30 01:02:55;;;;;;;2.03;0.90;;;17.60;99.90;;;;;;5052800;28;20554;-77
2021/06/30 01:05:22;;;;;;;3.58;1.00;;;17.60;99.90;;;;;;5052345;28;20068;-77
2021/06/30 01:07:49;;;;;;;3.10;0.85;;;17.60;99.90;;;;;;5052750;28;20050;-78
2021/06/30 01:10:17;;;;;;;2.42;0.90;;;17.60;99.90;;;;;;5052571;28;20136;-76
2021/06/30 01:12:45;;;;;;;1.73;0.80;;;17.50;99.90;;;;;;5057774;28;20077;-76
2021/06/30 01:15:13;;;;;;;5.80;0.90;;;17.50;99.90;;;;;;5063146;28;20080;-76
2021/06/30 01:17:46;;;;;;;2.05;0.88;;;17.50;99.90;;;;;;5058648;28;20044;-77
2021/06/30 01:20:14;;;;;;;2.88;0.70;;;17.40;99.90;;;;;;5064510;28;20044;-77
2021/06/30 01:22:45;;;;;;;3.38;0.95;;;17.30;99.90;;;;;;5062848;28;20072;-77
2021/06/30 01:25:12;;;;;;;2.78;0.77;;;17.30;99.90;;;;;;5064199;28;20041;-75
2021/06/30 01:27:40;;;;;;;3.50;0.73;;;17.30;99.90;;;;;;5052901;28;20131;-76
2021/06/30 01:30:08;;;;;;;1.77;0.80;;;17.30;99.90;;;;;;5052622;28;20140;-75
2021/06/30 01:32:35;;;;;;;2.28;0.80;;;17.20;99.90;;;;;;5046394;28;20139;-79
2021/06/30 01:35:03;;;;;;;0.93;0.50;;;17.10;99.90;;;;;;5053773;28;20129;-78
2021/06/30 01:37:30;;;;;;;1.80;0.60;;;17.00;99.90;;;;;;5056882;28;20055;-77
2021/06/30 01:39:58;;;;;;;1.75;0.50;;;16.90;99.90;;;;;;5056378;28;20132;-78
2021/06/30 01:42:26;;;;;;;2.65;0.60;;;16.90;99.90;;;;;;5038245;28;20132;-78
2021/06/30 01:44:53;;;;;;;1.25;0.60;;;16.80;99.90;;;;;;5022389;28;20128;-78
2021/06/30 01:47:20;;;;;;;2.90;0.50;;;16.70;99.90;;;;;;5051320;28;20136;-77
2021/06/30 01:49:47;;;;;;;0.73;0.40;;;16.60;99.90;;;;;;5056048;28;20068;-79
2021/06/30 01:52:16;;;;;;;1.10;0.45;;;16.60;99.90;;;;;;5055836;28;20132;-76
2021/06/30 01:54:43;;;;;;;1.98;0.50;;;16.60;99.90;;;;;;5056351;28;20049;-78
2021/06/30 01:57:12;;;;;;;2.20;0.50;;;16.60;99.90;;;;;;5055917;28;20140;-75
2021/06/30 01:59:40;;;;;;;1.10;0.50;;;16.50;99.90;;;;;;5055369;28;20060;-78
2021/06/30 02:02:07;;;;;;;1.77;0.70;;;16.50;99.90;;;;;;5055801;28;20064;-76
2021/06/30 02:04:34;;;;;;;0.73;0.32;;;16.50;99.90;;;;;;5055853;28;20091;-74
2021/06/30 02:07:01;;;;;;;1.58;0.50;;;16.40;99.90;;;;;;5055422;28;20123;-77
2021/06/30 02:09:28;;;;;;;1.23;0.50;;;16.50;99.90;;;;;;5055969;28;20136;-76
2021/06/30 02:11:55;;;;;;;1.25;0.50;;;16.50;99.90;;;;;;5056395;28;20506;-77
2021/06/30 02:14:24;;;;;;;0.98;0.30;;;16.50;99.90;;;;;;5057451;28;20149;-79
2021/06/30 02:16:51;;;;;;;0.80;0.22;;;16.40;99.90;;;;;;5055873;28;20127;-79
2021/06/30 02:19:18;;;;;;;1.23;0.47;;;16.30;99.90;;;;;;5050573;28;20143;-77
2021/06/30 02:21:45;;;;;;;1.98;0.50;;;16.30;99.90;;;;;;5055356;28;20132;-76
2021/06/30 02:24:13;;;;;;;1.73;0.47;;;16.20;99.90;;;;;;5055603;28;20136;-77
2021/06/30 02:26:40;;;;;;;0.47;0.32;;;16.20;99.90;;;;;;5055325;28;20131;-78
2021/06/30 02:29:07;;;;;;;1.05;0.43;;;16.10;99.90;;;;;;5055229;28;20171;-77
2021/06/30 02:31:35;;;;;;;1.75;0.45;;;16.10;99.90;;;;;;5055226;28;20564;-76
2021/06/30 02:34:02;;;;;;;0.93;0.30;;;16.00;99.90;;;;;;5047928;28;20072;-79
2021/06/30 02:36:29;;;;;;;1.23;0.40;;;16.00;99.90;;;;;;5055545;28;20132;-75
2021/06/30 02:38:58;;;;;;;2.28;0.50;;;15.90;99.90;;;;;;5055693;28;20045;-79
2021/06/30 02:41:25;;;;;;;1.25;0.50;;;16.00;99.90;;;;;;5055429;28;20055;-76
2021/06/30 02:43:52;;;;;;;1.00;0.50;;;16.10;99.90;;;;;;5054440;28;20154;-77
2021/06/30 02:46:19;;;;;;;0.77;0.30;;;16.10;99.90;;;;;;5054548;28;20136;-77
2021/06/30 02:48:47;;;;;;;1.35;0.47;;;16.00;99.90;;;;;;5060811;28;20084;-78
2021/06/30 02:51:15;;;;;;;1.10;0.40;;;16.00;99.90;;;;;;5061554;28;20087;-78
2021/06/30 02:53:42;;;;;;;1.20;0.50;;;16.10;99.90;;;;;;5041751;28;20053;-75
2021/06/30 02:56:09;;;;;;;1.40;0.40;;;16.10;99.90;;;;;;5068031;28;20553;-76
2021/06/30 02:58:36;;;;;;;0.55;0.20;;;16.00;99.90;;;;;;5069178;28;20077;-77
2021/06/30 03:01:03;;;;;;;1.38;0.50;;;16.10;99.90;;;;;;5063368;28;20088;-80
2021/06/30 03:03:30;;;;;;;0.38;0.25;;;16.00;99.90;;;;;;5058054;28;20110;-77
2021/06/30 03:05:59;;;;;;;1.02;0.40;;;16.00;99.90;;;;;;5054624;28;20084;-79
2021/06/30 03:08:26;;;;;;;1.00;0.50;;;16.00;99.90;;;;;;5049344;28;20049;-77
2021/06/30 03:10:53;;;;;;;1.48;0.30;;;16.00;99.90;;;;;;5052615;28;20506;-77
2021/06/30 03:13:20;;;;;;;1.58;0.40;;;16.00;99.90;;;;;;5051793;28;20124;-75
2021/06/30 03:15:48;;;;;;;1.77;0.30;;;16.00;99.90;;;;;;5052244;28;20136;-77
2021/06/30 03:18:15;;;;;;;1.70;0.32;;;16.00;99.90;;;;;;5052259;28;20084;-77
2021/06/30 03:20:42;;;;;;;1.20;0.40;;;16.00;99.90;;;;;;5051569;28;20135;-78
2021/06/30 03:23:11;;;;;;;1.85;0.70;;;16.00;99.90;;;;;;5051015;28;20139;-79
2021/06/30 03:25:38;;;;;;;1.25;0.30;;;16.00;99.90;;;;;;5051912;28;20049;-79
2021/06/30 03:28:06;;;;;;;0.55;0.30;;;16.10;99.90;;;;;;5051238;28;20136;-77
2021/06/30 03:30:35;;;;;;;2.05;0.35;;;16.00;99.90;;;;;;5052418;28;20041;-80
2021/06/30 03:33:03;;;;;;;0.77;0.30;;;16.00;99.90;;;;;;5034945;28;20049;-80
2021/06/30 03:35:30;;;;;;;0.50;0.30;;;16.00;99.90;;;;;;5061764;28;20062;-78
2021/06/30 03:37:57;;;;;;;1.85;0.40;;;16.00;99.90;;;;;;5062451;28;20486;-78
2021/06/30 03:40:25;;;;;;;1.15;0.50;;;16.00;99.90;;;;;;5069742;28;20076;-80
2021/06/30 03:42:52;;;;;;;1.25;0.30;;;16.00;99.90;;;;;;5050448;28;20124;-79
2021/06/30 03:45:19;;;;;;;0.85;0.30;;;16.00;99.90;;;;;;5051501;28;20103;-77
2021/06/30 03:47:47;;;;;;;1.52;0.30;;;16.00;99.90;;;;;;5051078;28;20145;-79
2021/06/30 03:50:14;;;;;;;0.77;0.40;;;16.00;99.90;;;;;;5050409;28;20049;-75
2021/06/30 03:52:41;;;;;;;0.73;0.20;;;16.00;99.90;;;;;;5051499;28;20132;-79
2021/06/30 03:55:10;;;;;;;1.38;0.40;;;16.00;99.90;;;;;;5050417;28;20558;-77
2021/06/30 03:57:38;;;;;;;1.15;0.25;;;15.90;99.90;;;;;;5050584;28;20041;-80
2021/06/30 04:00:09;;;;;;;1.08;0.30;;;16.00;99.90;;;;;;5051574;28;20151;-77
2021/06/30 04:02:37;;;;;;;2.28;0.30;;;15.90;99.90;;;;;;5053164;28;20041;-79
2021/06/30 04:05:04;;;;;;;0.98;0.30;;;15.90;99.90;;;;;;5051212;28;20546;-80
2021/06/30 04:07:32;;;;;;;0.43;0.30;;;15.90;99.90;;;;;;5053862;28;20100;-78
2021/06/30 04:09:59;;;;;;;1.05;0.45;;;15.90;99.90;;;;;;5060310;28;20038;-79
2021/06/30 04:12:26;;;;;;;0.95;0.25;;;15.90;99.90;;;;;;5037867;28;20136;-77
2021/06/30 04:14:54;;;;;;;0.40;0.20;;;15.90;99.90;;;;;;5053552;28;20139;-77
2021/06/30 04:17:21;;;;;;;0.50;0.22;;;15.90;99.90;;;;;;5052165;28;20128;-76
2021/06/30 04:19:48;;;;;;;0.55;0.30;;;16.00;99.90;;;;;;5050188;28;20147;-78
2021/06/30 04:22:15;;;;;;;1.15;0.30;;;16.00;99.90;;;;;;5051010;28;20048;-77
2021/06/30 04:24:42;;;;;;;0.85;0.30;;;16.00;99.90;;;;;;5052746;28;20135;-76
2021/06/30 04:27:09;;;;;;;1.17;0.40;;;16.00;99.90;;;;;;5052558;28;20515;-77
2021/06/30 04:29:36;;;;;;;0.68;0.30;;;16.10;99.90;;;;;;5053612;28;20156;-75
2021/06/30 04:32:06;;;;;;;1.35;0.35;;;16.00;99.90;;;;;;5054561;28;20083;-77
2021/06/30 04:34:33;;;;;;;0.95;0.32;;;16.10;99.90;;;;;;5053686;28;20458;-75
2021/06/30 04:37:00;;;;;;;0.73;0.35;;;16.10;99.90;;;;;;5053330;28;20148;-77
2021/06/30 04:39:27;;;;;;;0.93;0.30;;;16.10;99.90;;;;;;5068960;28;20045;-78
2021/06/30 04:41:55;;;;;;;1.00;0.30;;;16.10;99.90;;;;;;5053772;28;20127;-78
2021/06/30 04:44:22;;;;;;;0.77;0.38;;;16.20;99.90;;;;;;5051749;28;20128;-78
2021/06/30 04:46:49;;;;;;;1.25;0.40;;;16.10;99.90;;;;;;5037503;28;20072;-77
2021/06/30 04:49:18;;;;;;;2.17;0.38;;;16.10;99.90;;;;;;5053539;28;20139;-78
2021/06/30 04:51:45;;;;;;;1.05;0.40;;;16.10;99.90;;;;;;5033061;28;20140;-79
2021/06/30 04:54:14;;;;;;;0.40;0.30;;;16.10;99.90;;;;;;5033610;28;20072;-78
2021/06/30 04:56:41;;;;;;;1.83;0.40;;;16.10;99.90;;;;;;5033900;28;20091;-76
2021/06/30 04:59:09;;;;;;;1.55;0.38;;;16.10;99.90;;;;;;5033516;28;20042;-79
2021/06/30 05:01:37;;;;;;;0.95;0.35;;;16.00;99.90;;;;;;5033237;28;20087;-79
2021/06/30 05:04:04;;;;;;;1.15;0.40;;;16.00;99.90;;;;;;5033428;28;20141;-77
2021/06/30 05:06:34;;;;;;;1.50;0.32;;;16.00;99.90;;;;;;5035000;28;20132;-79
2021/06/30 05:09:01;;;;;;;1.95;0.25;;;16.00;99.90;;;;;;5036992;28;20078;-77
2021/06/30 05:11:29;;;;;;;1.00;0.32;;;15.90;99.90;;;;;;5039205;28;20136;-77
2021/06/30 05:13:56;;;;;;;1.13;0.40;;;16.00;99.90;;;;;;5037302;28;20057;-76
2021/06/30 05:16:24;;;;;;;0.85;0.30;;;16.00;99.90;;;;;;5037733;28;20105;-78
2021/06/30 05:18:52;;;;;;;0.28;0.20;;;16.00;99.90;;;;;;5041531;28;20042;-77
2021/06/30 05:21:21;;;;;;;1.77;0.40;;;16.10;99.90;;;;;;5047986;28;20037;-77
2021/06/30 05:23:50;;;;;;;0.45;0.20;;;16.10;99.90;;;;;;5036977;28;20470;-77
2021/06/30 05:26:17;;;;;;;1.02;0.30;;;16.20;99.90;;;;;;5037308;28;20228;-79
2021/06/30 05:28:44;;;;;;;0.95;0.30;;;16.20;99.90;;;;;;5036954;28;20045;-79
2021/06/30 05:31:12;;;;;;;1.13;0.30;;;16.30;99.90;;;;;;5036616;28;20081;-77
2021/06/30 05:33:39;;;;;;;0.82;0.30;;;16.30;99.90;;;;;;5035970;28;20134;-77
2021/06/30 05:36:06;;;;;;;1.75;0.40;;;16.30;99.80;;;;;;5036874;28;20144;-78
2021/06/30 05:38:34;;;;;;;1.45;0.30;;;16.40;99.70;;;;;;5036848;28;20136;-79
2021/06/30 05:41:03;;;;;;;0.73;0.30;;;16.50;99.30;;;;;;5036707;28;20053;-77
2021/06/30 05:43:30;;;;;;;0.73;0.30;;;16.40;99.30;;;;;;5036587;28;20136;-79
2021/06/30 05:45:57;;;;;;;0.57;0.30;;;16.50;99.30;;;;;;5036108;28;20051;-79
2021/06/30 05:48:24;;;;;;;0.50;0.30;;;16.50;99.40;;;;;;5036454;28;20048;-79
2021/06/30 05:50:51;;;;;;;0.98;0.32;;;16.60;99.10;;;;;;5048787;28;20513;-79
2021/06/30 05:53:18;;;;;;;3.00;0.38;;;16.60;99.00;;;;;;5056488;28;20148;-78
2021/06/30 05:55:45;;;;;;;1.77;0.40;;;16.60;98.50;;;;;;5038404;28;20048;-77
2021/06/30 05:58:14;;;;;;;0.60;0.30;;;16.70;98.10;;;;;;5039062;28;20466;-78
2021/06/30 06:00:42;;;;;;;1.15;0.40;;;16.70;97.80;;;;;;5056165;28;20132;-78
2021/06/30 06:03:09;;;;;;;1.42;0.30;;;16.60;97.80;;;;;;5055842;28;20151;-79
2021/06/30 06:05:36;;;;;;;0.70;0.30;;;16.60;97.80;;;;;;5056255;28;20044;-78
2021/06/30 06:08:04;;;;;;;1.05;0.40;;;16.60;97.90;;;;;;5056384;28;20089;-77
2021/06/30 06:10:31;;;;;;;0.57;0.20;;;16.60;97.50;;;;;;5056371;28;20055;-77
2021/06/30 06:12:58;;;;;;;2.20;0.40;;;16.60;97.40;;;;;;5056333;28;20461;-76
2021/06/30 06:15:27;;;;;;;0.88;0.40;;;16.50;97.50;;;;;;5055810;28;20045;-79
2021/06/30 06:17:54;;;;;;;0.90;0.40;;;16.60;97.20;;;;;;5055413;28;20132;-79
2021/06/30 06:20:21;;;;;;;0.63;0.40;;;16.60;97.00;;;;;;5055532;28;20131;-78
2021/06/30 06:22:48;;;;;;;2.15;0.30;;;16.60;96.80;;;;;;5048738;28;20128;-77
2021/06/30 06:25:15;;;;;;;0.70;0.30;;;16.70;96.60;;;;;;5036146;28;20069;-77
2021/06/30 06:27:42;;;;;;;0.95;0.30;;;16.70;96.50;;;;;;5035405;28;20459;-79
2021/06/30 06:30:12;;;;;;;2.13;0.32;;;16.70;96.60;;;;;;5035993;28;20128;-79
2021/06/30 06:32:40;;;;;;;0.40;0.20;;;16.80;96.80;;;;;;5035350;28;20463;-77
2021/06/30 06:35:09;;;;;;;2.58;0.50;;;16.90;96.50;;;;;;5035758;28;20140;-77
2021/06/30 06:37:38;;;;;;;2.15;0.40;;;16.90;96.70;;;;;;5027157;28;20473;-77
2021/06/30 06:40:09;;;;;;;2.05;0.40;;;17.00;96.60;;;;;;5055622;28;20049;-76
2021/06/30 06:42:37;;;;;;;1.52;0.47;;;17.00;96.90;;;;;;5038456;28;20129;-77
2021/06/30 06:45:06;;;;;;;1.00;0.38;;;17.10;96.70;;;;;;5035486;28;20136;-78
2021/06/30 06:47:34;;;;;;;1.10;0.30;;;17.20;96.00;;;;;;5034541;28;20077;-78
2021/06/30 06:50:02;;;;;;;1.10;0.40;;;17.20;95.80;;;;;;5035441;28;20136;-75
2021/06/30 06:52:29;;;;;;;1.75;0.40;;;17.20;96.20;;;;;;5045453;28;20049;-76
2021/06/30 06:54:56;;;;;;;0.52;0.30;;;17.20;96.10;;;;;;5055211;28;20136;-78
2021/06/30 06:57:24;;;;;;;1.08;0.32;;;17.10;96.20;;;;;;5054686;28;20132;-76
2021/06/30 06:59:51;;;;;;;1.38;0.38;;;17.10;95.90;;;;;;5064168;28;20032;-78
2021/06/30 07:02:18;;;;;;;0.77;0.45;;;17.10;95.80;;;;;;5057534;28;20132;-77
2021/06/30 07:04:45;;;;;;;0.98;0.32;;;17.10;95.90;;;;;;5054981;28;20049;-78
2021/06/30 07:07:13;;;;;;;1.30;0.40;;;17.20;95.80;;;;;;5055300;28;20132;-77
2021/06/30 07:09:41;;;;;;;1.90;0.40;;;17.20;96.00;;;;;;5056550;28;20041;-75
2021/06/30 07:12:08;;;;;;;1.58;0.40;;;17.20;96.00;;;;;;5055446;28;20045;-77
2021/06/30 07:14:35;;;;;;;0.82;0.32;;;17.30;95.70;;;;;;5055039;28;20103;-79
2021/06/30 07:17:02;;;;;;;1.20;0.28;;;17.30;95.90;;;;;;5054921;28;20131;-77
2021/06/30 07:19:30;;;;;;;0.85;0.40;;;17.40;95.60;;;;;;5054781;28;20087;-79
2021/06/30 07:21:57;;;;;;;1.00;0.30;;;17.40;95.20;;;;;;5054457;28;20135;-76
2021/06/30 07:24:25;;;;;;;0.95;0.30;;;17.40;95.20;;;;;;5054139;28;20144;-79
2021/06/30 07:26:52;;;;;;;1.35;0.35;;;17.40;95.60;;;;;;5054726;28;20132;-77
2021/06/30 07:29:19;;;;;;;1.58;0.40;;;17.40;95.10;;;;;;5054513;28;20080;-77
2021/06/30 07:31:47;;;;;;;0.82;0.20;;;17.40;95.40;;;;;;5054353;28;20131;-76
2021/06/30 07:34:14;;;;;;;0.77;0.30;;;17.50;95.70;;;;;;5069698;28;20140;-77
2021/06/30 07:36:41;;;;;;;1.15;0.20;;;17.60;95.90;;;;;;5062616;28;20063;-76
2021/06/30 07:39:08;;;;;;;1.30;0.57;;;17.70;95.60;;;;;;5054810;28;20500;-79
2021/06/30 07:41:37;;;;;;;1.30;0.40;;;17.80;95.50;;;;;;5053905;28;20083;-77
2021/06/30 07:44:05;;;;;;;0.52;0.30;;;17.90;94.80;;;;;;5053940;28;20566;-78
2021/06/30 07:46:32;;;;;;;0.50;0.30;;;17.90;95.00;;;;;;5054178;28;20095;-79
2021/06/30 07:48:59;;;;;;;3.03;0.60;;;17.90;94.70;;;;;;5053945;28;20136;-77
2021/06/30 07:51:26;;;;;;;1.08;0.40;;;17.90;94.80;;;;;;5048880;28;20140;-79
2021/06/30 07:53:53;;;;;;;2.15;0.38;;;17.80;94.80;;;;;;5054243;28;20423;-79
2021/06/30 07:56:33;;;;;;;2.50;0.40;;;17.80;94.80;;;;;;5054017;28;20128;-79
2021/06/30 07:59:02;;;;;;;1.38;0.30;;;17.80;95.10;;;;;;5053864;28;20055;-77
2021/06/30 08:01:29;;;;;;;1.40;0.40;;;17.80;95.30;;;;;;5053675;28;20052;-79
2021/06/30 08:03:56;;;;;;;0.98;0.40;;;17.90;95.70;;;;;;5053858;28;20140;-79
2021/06/30 08:06:23;;;;;;;1.20;0.40;;;18.00;95.60;;;;;;5053685;28;20045;-81
2021/06/30 08:08:50;;;;;;;0.47;0.30;;;18.10;95.40;;;;;;5053806;28;20131;-79
2021/06/30 08:11:18;;;;;;;0.55;0.30;;;18.20;95.00;;;;;;5053750;28;20143;-78
2021/06/30 08:13:45;;;;;;;1.15;0.38;;;18.30;95.20;;;;;;5054302;28;20045;-78
2021/06/30 08:16:14;;;;;;;0.73;0.30;;;18.30;94.60;;;;;;5054207;28;20581;-76
2021/06/30 08:18:41;;;;;;;0.60;0.30;;;18.40;94.00;;;;;;5059928;28;20069;-77
2021/06/30 08:21:08;;;;;;;0.68;0.30;;;18.30;94.00;;;;;;5062452;28;20080;-80
2021/06/30 08:23:35;;;;;;;1.20;0.45;;;18.40;94.00;;;;;;5054427;28;20131;-77
2021/06/30 08:26:02;;;;;;;1.27;0.47;;;18.40;94.20;;;;;;5053850;28;20123;-77
2021/06/30 08:28:29;;;;;;;0.65;0.32;;;18.50;94.20;;;;;;5054221;28;20045;-77
2021/06/30 08:30:56;;;;;;;0.82;0.30;;;18.40;94.10;;;;;;5053624;28;20060;-77
2021/06/30 08:33:25;;;;;;;0.57;0.30;;;18.40;94.40;;;;;;5053870;28;20077;-76
2021/06/30 08:35:54;;;;;;;1.20;0.40;;;18.40;94.10;;;;;;5053764;28;20132;-79
2021/06/30 08:38:21;;;;;;;1.17;0.40;;;18.40;94.70;;;;;;5053994;28;20055;-77
2021/06/30 08:40:48;;;;;;;0.88;0.50;;;18.40;94.10;;;;;;5053370;28;20136;-76
2021/06/30 08:43:16;;;;;;;1.40;0.32;;;18.40;94.00;;;;;;5053165;28;20135;-79
2021/06/30 08:45:44;;;;;;;0.80;0.40;;;18.50;94.00;;;;;;5053816;28;20049;-79
2021/06/30 08:48:12;;;;;;;0.90;0.28;;;18.50;94.00;;;;;;5053244;28;20404;-77
2021/06/30 08:50:44;;;;;;;1.55;0.40;;;18.50;94.00;;;;;;5032093;28;20164;-77
2021/06/30 08:53:12;;;;;;;1.05;0.40;;;18.60;94.00;;;;;;5042130;28;20159;-78
2021/06/30 08:55:43;;;;;;;0.85;0.30;;;18.60;94.00;;;;;;5055923;28;20478;-78
2021/06/30 08:58:12;;;;;;;2.08;0.30;;;18.70;94.00;;;;;;5059937;28;20073;-77
2021/06/30 09:00:40;;;;;;;1.13;0.50;;;18.70;93.80;;;;;;5058197;28;20061;-78
2021/06/30 09:03:11;;;;;;;0.77;0.32;;;18.80;93.60;;;;;;5050858;28;20080;-78
2021/06/30 09:09:13;;;;;;;1.10;0.40;;;18.90;92.80;;;;;;5050277;28;20413;-77
2021/06/30 09:11:41;;;;;;;0.68;0.30;;;18.90;92.80;;;;;;5050373;28;20135;-80
2021/06/30 09:14:25;;;;;;;1.77;0.40;;;18.80;92.30;;;;;;5050611;28;20238;-78
2021/06/30 09:17:08;;;;;;;0.55;0.35;;;18.80;92.50;;;;;;5030122;28;20172;-79
2021/06/30 09:20:01;;;;;;;0.98;0.30;;;18.80;92.40;;;;;;5038693;28;20513;-75
2021/06/30 09:22:39;;;;;;;2.08;0.52;;;18.90;91.50;;;;;;5050309;28;20132;-79
2021/06/30 09:25:08;;;;;;;0.40;0.30;;;19.00;91.20;;;;;;5050483;28;20052;-79
2021/06/30 09:27:44;;;;;;;0.60;0.35;;;19.00;90.60;;;;;;5050486;28;20049;-80
2021/06/30 09:30:14;;;;;;;0.75;0.40;;;19.20;90.70;;;;;;5050060;28;20048;-79
2021/06/30 09:33:01;;;;;;;1.80;0.50;;;19.30;90.70;;;;;;5050294;28;20049;-78
2021/06/30 09:35:32;;;;;;;0.52;0.20;;;19.30;90.30;;;;;;5050338;28;20049;-80
2021/06/30 09:38:01;;;;;;;1.13;0.25;;;19.30;88.90;;;;;;5050481;28;20144;-79
2021/06/30 09:40:46;;;;;;;1.25;0.40;;;19.40;89.70;;;;;;5050207;28;20117;-78
2021/06/30 09:43:29;;;;;;;0.47;0.20;;;19.50;89.20;;;;;;5050713;28;20132;-78
2021/06/30 09:45:58;;;;;;;1.15;0.20;;;19.50;88.80;;;;;;5050663;28;20132;-79
2021/06/30 09:48:34;;;;;;;2.35;0.40;;;19.50;87.60;;;;;;5049983;28;20156;-78
2021/06/30 09:51:05;;;;;;;2.10;0.30;;;19.40;88.30;;;;;;5051006;28;20107;-79
2021/06/30 09:53:39;;;;;;;2.78;0.40;;;19.40;88.50;;;;;;5050336;28;20550;-76
2021/06/30 09:59:00;;;;;;;0.50;0.25;;;19.10;92.00;;;;;;5054020;28;20049;-78
2021/06/30 10:01:27;;;;;;;0.95;0.35;;;18.90;93.10;;;;;;5054516;28;20144;-77
2021/06/30 10:03:55;;;;;;;1.17;0.40;;;18.50;94.10;;;;;;5054759;28;20088;-77
2021/06/30 10:06:29;;;;;;;0.95;0.40;;;18.20;95.20;;;;;;5053909;28;20159;-77
2021/06/30 10:08:58;;;;;;;1.27;0.47;;;18.00;96.90;;;;;;5054222;28;20132;-77
2021/06/30 10:11:27;;;;;;;1.10;0.40;;;17.80;97.60;;;;;;5054171;28;20080;-77
2021/06/30 10:13:55;;;;;;;1.10;0.40;;;17.70;97.90;;;;;;5053541;28;20132;-77
2021/06/30 10:16:22;;;;;;;0.70;0.30;;;17.70;97.70;;;;;;5053674;28;20136;-78
2021/06/30 10:18:52;;;;;;;2.28;0.55;;;17.70;97.90;;;;;;5035992;28;20084;-78
2021/06/30 10:21:22;;;;;;;1.42;0.50;;;17.70;98.30;;;;;;5053325;28;20127;-80
2021/06/30 10:23:50;;;;;;;2.00;0.60;;;17.70;97.50;;;;;;5052701;28;20422;-79
2021/06/30 10:26:20;;;;;;;0.50;0.30;;;17.70;97.60;;;;;;5053189;28;20187;-79
2021/06/30 10:28:53;;;;;;;0.77;0.40;;;17.70;97.80;;;;;;5053505;28;20095;-77
2021/06/30 10:31:21;;;;;;;1.33;0.40;;;17.80;97.60;;;;;;5053085;28;20581;-76
2021/06/30 10:33:59;;;;;;;1.55;0.40;;;17.80;97.00;;;;;;5053008;28;20136;-79
2021/06/30 10:36:48;;;;;;;0.88;0.38;;;17.90;97.60;;;;;;5053729;28;20539;-78
2021/06/30 10:39:17;;;;;;;0.47;0.25;;;18.10;97.20;;;;;;5055699;28;20464;-79
2021/06/30 10:41:52;;;;;;;0.65;0.30;;;18.10;96.90;;;;;;5055761;28;20135;-80
2021/06/30 10:44:23;;;;;;;0.40;0.30;;;18.20;96.70;;;;;;5055279;28;20041;-78
2021/06/30 10:46:53;;;;;;;0.75;0.40;;;18.30;97.00;;;;;;5052493;28;20159;-78
2021/06/30 10:49:29;;;;;;;2.25;0.40;;;18.30;96.60;;;;;;5051630;28;20445;-78
2021/06/30 10:51:59;;;;;;;0.90;0.30;;;18.40;97.30;;;;;;5051780;28;20135;-79
2021/06/30 10:54:44;;;;;;;1.17;0.40;;;18.50;96.70;;;;;;5052544;28;20204;-79
2021/06/30 10:57:31;;;;;;;1.15;0.50;;;18.50;96.10;;;;;;5051871;28;20045;-78
2021/06/30 11:00:34;;;;;;;1.48;0.47;;;18.70;96.80;;;;;;5052747;28;20140;-79
2021/06/30 11:03:28;;;;;;;1.80;0.40;;;18.80;96.60;;;;;;5020412;28;20136;-78
2021/06/30 11:06:17;;;;;;;0.57;0.40;;;18.90;95.50;;;;;;5051581;28;20202;-79
2021/06/30 11:08:47;;;;;;;0.73;0.40;;;18.90;95.10;;;;;;5052114;28;20049;-79
2021/06/30 11:11:17;;;;;;;0.95;0.40;;;19.00;94.70;;;;;;5052685;28;20045;-79
2021/06/30 11:14:04;;;;;;;1.40;0.35;;;19.00;94.20;;;;;;5051541;28;20409;-79
2021/06/30 11:16:54;;;;;;;1.25;0.50;;;19.00;94.00;;;;;;5051318;28;20045;-79
2021/06/30 11:19:47;;;;;;;1.52;0.22;;;19.00;94.20;;;;;;5052103;28;20053;-77
2021/06/30 11:22:29;;;;;;;1.00;0.40;;;19.10;94.70;;;;;;5052372;28;20048;-79
2021/06/30 11:24:58;;;;;;;0.70;0.30;;;19.20;94.80;;;;;;5051588;28;20053;-79
2021/06/30 11:27:47;;;;;;;0.50;0.30;;;19.20;94.30;;;;;;5051931;28;20052;-78
2021/06/30 11:30:36;;;;;;;0.70;0.30;;;19.20;94.00;;;;;;5051790;28;20049;-79
2021/06/30 11:33:14;;;;;;;1.27;0.45;;;19.00;94.40;;;;;;5051253;28;20414;-79
2021/06/30 11:35:44;;;;;;;1.73;0.40;;;19.00;94.40;;;;;;5051855;28;20414;-79
2021/06/30 11:38:27;;;;;;;1.40;0.35;;;19.00;94.40;;;;;;5051218;28;20114;-77
2021/06/30 11:41:05;;;;;;;0.77;0.30;;;19.00;94.90;;;;;;5040791;28;20403;-79
2021/06/30 11:43:34;;;;;;;0.82;0.35;;;19.00;95.20;;;;;;5051679;28;20049;-77
2021/06/30 11:46:05;;;;;;;0.50;0.20;;;19.10;95.60;;;;;;5051270;28;20470;-79
2021/06/30 11:48:36;;;;;;;1.30;0.50;;;19.20;96.60;;;;;;5049464;28;20044;-79
2021/06/30 11:51:05;;;;;;;0.90;0.40;;;19.50;97.10;;;;;;5051371;28;20053;-79
2021/06/30 11:53:43;;;;;;;0.70;0.40;;;19.70;97.40;;;;;;5050857;28;20140;-79
2021/06/30 11:56:18;;;;;;;1.20;0.38;;;19.90;97.30;;;;;;5049871;28;20084;-79
2021/06/30 11:58:52;;;;;;;0.50;0.30;;;19.90;97.00;;;;;;5052017;28;20121;-80
2021/06/30 12:01:26;;;;;;;1.05;0.40;;;19.90;96.30;;;;;;5053065;28;20106;-78
2021/06/30 12:04:15;;;;;;;1.13;0.50;;;19.90;95.60;;;;;;5050764;28;20061;-79
2021/06/30 12:06:45;;;;;;;1.73;0.50;;;19.80;95.80;;;;;;5033087;28;20504;-79
2021/06/30 12:09:18;;;;;;;1.65;0.50;;;19.60;92.40;;;;;;5051002;28;20089;-78
2021/06/30 12:11:49;;;;;;;1.35;0.50;;;19.40;93.30;;;;;;5050684;28;20140;-80
2021/06/30 12:14:19;;;;;;;0.75;0.30;;;19.30;94.40;;;;;;5050764;28;20545;-78
2021/06/30 12:16:50;;;;;;;1.73;0.50;;;19.20;94.60;;;;;;5040664;28;20060;-79
2021/06/30 12:19:21;;;;;;;1.05;0.40;;;19.20;94.10;;;;;;5031164;28;20045;-77
2021/06/30 12:21:50;;;;;;;1.60;0.50;;;19.20;94.40;;;;;;5031731;28;20140;-79
2021/06/30 12:24:22;;;;;;;2.10;0.40;;;19.20;94.40;;;;;;5030530;28;20072;-80
2021/06/30 12:27:07;;;;;;;1.48;0.50;;;19.30;94.70;;;;;;5050576;28;20065;-79
2021/06/30 12:29:37;;;;;;;0.82;0.30;;;19.50;95.00;;;;;;5050615;28;20146;-79
2021/06/30 12:32:09;;;;;;;1.73;0.40;;;19.60;94.60;;;;;;5050545;28;20057;-80
2021/06/30 12:34:38;;;;;;;0.60;0.30;;;19.90;94.20;;;;;;5050190;28;20087;-77
2021/06/30 12:37:05;;;;;;;0.43;0.28;;;20.00;94.00;;;;;;5050526;28;20087;-79
2021/06/30 12:39:36;;;;;;;1.33;0.47;;;20.20;94.10;;;;;;5050432;28;20048;-78
2021/06/30 12:42:07;;;;;;;0.93;0.30;;;20.40;93.90;;;;;;5063810;28;20049;-79
2021/06/30 12:44:54;;;;;;;0.88;0.40;;;20.60;92.50;;;;;;5050354;28;20164;-79
2021/06/30 12:47:21;;;;;;;1.35;0.40;;;20.90;91.10;;;;;;5049732;28;20132;-80
2021/06/30 12:50:03;;;;;;;1.70;0.30;;;21.00;90.00;;;;;;5048693;28;20095;-79
2021/06/30 12:52:31;;;;;;;1.08;0.40;;;21.20;89.60;;;;;;5049994;28;20487;-79
2021/06/30 12:55:10;;;;;;;0.57;0.25;;;21.20;86.60;;;;;;5050076;28;20045;-79
2021/06/30 12:58:02;;;;;;;1.30;0.43;;;21.10;86.30;;;;;;5015959;28;20049;-79
2021/06/30 13:00:31;;;;;;;0.73;0.30;;;21.10;86.20;;;;;;5030984;28;20049;-79
2021/06/30 13:03:17;;;;;;;0.57;0.30;;;21.00;83.70;;;;;;5030193;28;20133;-79
2021/06/30 13:05:48;;;;;;;0.47;0.28;;;20.80;84.90;;;;;;5030391;28;20092;-78
2021/06/30 13:08:35;;;;;;;0.95;0.50;;;20.70;86.00;;;;;;5033707;28;20050;-79